Reinbeck, IA

7:51 PM CDT on March 26, 2015 (GMT -0500)
Scout Creek | | Change Station
CLOSE
Current Station
Personal Weather Station
Location: Reinbeck, IA
Elevation: 942 ft
Nearby Weather Stations

Elev 942 ft 42.34 °N, 92.55 °W | Updated 11 minutes ago

Mostly Cloudy
Mostly Cloudy
34.2 °F
Feels Like 29 °F
N
5.8
Wind Variable Wind from NNW

Today
High -- | Low -- °F
--% Chance of Precip.
Yesterday
High -- | Low -- °F
Precip. -- in
7:03 AM 7:29 PM
Waxing Crescent, 47% visible
Pressure 30.12 in
Visibility 10.0 miles
Clouds Scattered Clouds 3800 ft
Windchill 29 °F
Dew Point 26 °F
Humidity 71%
Rainfall 0.00 in
Snow Depth Not available.
UV 0 out of 12
Pollen 4.40 out of 12
Air Quality Not available.
Flu Activity Not available.
METAR KALO 262354Z 36015KT 10SM SCT038 01/M06 A3009 RMK AO2 SLP200 T00061056 10056 20006 53009

More Conditions Fewer Conditions

Pressure 30.12 in
Visibility 10.0 miles
Clouds Scattered Clouds 3800 ft
Windchill 29 °F
Dew Point 26 °F
Humidity 71%
Rainfall 0.00 in
Snow Depth Not available.
UV 0 out of 12
Pollen 4.40 out of 12
Air Quality Not available.
Flu Activity Not available.
METAR KALO 262354Z 36015KT 10SM SCT038 01/M06 A3009 RMK AO2 SLP200 T00061056 10056 20006 53009

More Conditions Fewer Conditions

10-Day Weather Forecast

Almanac

Astronomy

Mar. 26, 2015 Rise Set
Actual Time
Civil Twilight
Nautical Twilight
Astronomical Twilight
Moon
Length of Visible Light
Length of Day
Tomorrow will be .
, % of the Moon is Illuminated

Today's Extremes

State Highs State Lows

Community

WunderPhotos

Upload Photos

1,808,663 photos uploaded!

WunderBlogs® & News

Nearby

Air Quality

  Air Quality AQ Index Pollutant
Not available.

Snow Depth

Station Depth Elevation

Earthquake Activity

City Distance Mag. Time & Date
Minimum magnitude displayed is 2.5.

Coastal Water Temperatures

Place Temperature

Stations

Nearby Weather Stations

Station Location Temp. Windchill Dew Point Humidity Wind Precip. Elev Updated Type